createdAt,value
2022-08-17T00:00:43.726Z,23.30
2022-08-17T00:01:52.099Z,23.30
2022-08-17T00:03:25.155Z,23.30
2022-08-17T00:04:27.102Z,23.30
2022-08-17T00:05:34.164Z,23.30
2022-08-17T00:06:36.830Z,23.30
2022-08-17T00:07:38.748Z,23.30
2022-08-17T00:08:55.790Z,23.30
2022-08-17T00:09:57.759Z,23.40
2022-08-17T00:11:00.276Z,23.40
2022-08-17T00:12:43.786Z,23.40
2022-08-17T00:13:29.689Z,23.40
2022-08-17T00:14:31.569Z,23.40
2022-08-17T00:15:33.432Z,23.30
2022-08-17T00:16:50.510Z,23.30
2022-08-17T00:17:59.050Z,23.30
2022-08-17T00:19:08.332Z,23.30
2022-08-17T00:20:12.594Z,23.30
2022-08-17T00:21:16.420Z,23.30
2022-08-17T00:22:34.181Z,23.40
2022-08-17T00:23:39.130Z,23.40
2022-08-17T00:24:46.448Z,23.30
2022-08-17T00:25:48.461Z,23.30
2022-08-17T00:26:50.452Z,23.40
2022-08-17T00:27:52.342Z,23.40
2022-08-17T00:28:56.124Z,23.40
2022-08-17T00:29:58.313Z,23.40
2022-08-17T00:31:00.062Z,23.40
2022-08-17T00:33:14.104Z,23.40
2022-08-17T00:33:30.343Z,23.40
2022-08-17T00:34:32.694Z,23.40
2022-08-17T00:35:35.678Z,23.30
2022-08-17T00:36:37.869Z,23.40
2022-08-17T00:37:40.558Z,23.30
2022-08-17T00:38:43.245Z,23.30
2022-08-17T00:39:45.016Z,23.30
2022-08-17T00:40:51.790Z,23.30
2022-08-17T00:41:53.706Z,23.40
2022-08-17T00:42:56.036Z,23.40
2022-08-17T00:44:01.756Z,23.30
2022-08-17T00:45:06.233Z,23.40
2022-08-17T00:46:27.013Z,23.30
2022-08-17T00:47:28.813Z,23.40
2022-08-17T00:48:31.629Z,23.30
2022-08-17T00:49:33.577Z,23.30
2022-08-17T00:50:36.378Z,23.30
2022-08-17T00:51:38.197Z,23.30
2022-08-17T00:52:48.550Z,23.30
2022-08-17T00:53:56.477Z,23.30
2022-08-17T00:54:59.107Z,23.40
2022-08-17T00:56:04.602Z,23.30
2022-08-17T00:57:15.125Z,23.30
2022-08-17T00:58:17.009Z,23.30
2022-08-17T00:59:40.423Z,23.30
2022-08-17T01:00:46.068Z,23.20
2022-08-17T01:01:50.193Z,23.20
2022-08-17T01:02:58.272Z,23.20
2022-08-17T01:04:01.301Z,23.20
2022-08-17T01:05:03.255Z,23.20
2022-08-17T01:06:06.206Z,23.20
2022-08-17T01:07:08.560Z,23.20
2022-08-17T01:08:16.857Z,23.20
2022-08-17T01:09:20.744Z,23.20
2022-08-17T01:10:59.306Z,23.20
2022-08-17T01:11:52.361Z,23.20
2022-08-17T01:12:54.451Z,23.20
2022-08-17T01:13:56.266Z,23.20
2022-08-17T01:14:58.358Z,23.20
2022-08-17T01:16:07.740Z,23.20
2022-08-17T01:17:09.893Z,23.20
2022-08-17T01:18:13.718Z,23.20
2022-08-17T01:19:20.345Z,23.20
2022-08-17T01:20:22.773Z,23.20
2022-08-17T01:21:40.834Z,23.20
2022-08-17T01:22:42.973Z,23.20
2022-08-17T01:23:45.143Z,23.20
2022-08-17T01:24:53.064Z,23.20
2022-08-17T01:25:57.949Z,23.20
2022-08-17T01:27:00.142Z,23.10
2022-08-17T01:28:02.970Z,23.20
2022-08-17T01:29:06.433Z,23.10
2022-08-17T01:30:58.439Z,23.20
2022-08-17T01:32:44.087Z,23.10
2022-08-17T01:33:45.971Z,23.10
2022-08-17T01:34:50.130Z,23.10
2022-08-17T01:35:52.722Z,23.20
2022-08-17T01:36:57.826Z,23.20
2022-08-17T01:37:59.777Z,23.20
2022-08-17T01:39:01.878Z,23.20
2022-08-17T01:40:12.994Z,23.20
2022-08-17T01:41:16.574Z,23.20
2022-08-17T01:42:26.672Z,23.20
2022-08-17T01:43:34.529Z,23.10
2022-08-17T01:44:36.615Z,23.20
2022-08-17T01:45:46.555Z,23.10
2022-08-17T01:46:48.505Z,23.10
2022-08-17T01:47:51.570Z,23.20
2022-08-17T01:48:54.057Z,23.20
2022-08-17T01:49:56.595Z,23.10
2022-08-17T01:50:59.507Z,23.10
2022-08-17T01:52:07.651Z,23.10
2022-08-17T01:53:14.020Z,23.10
2022-08-17T01:54:19.013Z,23.10
2022-08-17T01:55:27.440Z,23.10
2022-08-17T01:56:31.014Z,23.10
2022-08-17T01:57:33.055Z,23.10
2022-08-17T01:58:35.687Z,23.10
2022-08-17T01:59:37.994Z,23.10
2022-08-17T02:01:00.250Z,23.10
2022-08-17T02:02:04.825Z,23.10
2022-08-17T02:03:07.778Z,23.10
2022-08-17T02:04:09.680Z,23.10
2022-08-17T02:05:12.564Z,23.10
2022-08-17T02:06:27.569Z,23.10
2022-08-17T02:07:30.160Z,23.10
2022-08-17T02:08:39.087Z,23.00
2022-08-17T02:09:42.199Z,23.00
2022-08-17T02:10:46.805Z,23.00
2022-08-17T02:11:48.869Z,23.00
2022-08-17T02:12:52.302Z,23.00
2022-08-17T02:14:01.041Z,23.00
2022-08-17T02:15:06.333Z,23.00
2022-08-17T02:16:08.676Z,22.90
2022-08-17T02:17:10.809Z,22.90
2022-08-17T02:18:14.164Z,22.90
2022-08-17T02:19:17.269Z,22.90
2022-08-17T02:20:42.189Z,22.90
2022-08-17T02:21:42.318Z,22.90
2022-08-17T02:22:46.311Z,22.90
2022-08-17T02:23:49.479Z,22.90
2022-08-17T02:25:00.252Z,22.90
2022-08-17T02:26:04.123Z,22.90
2022-08-17T02:27:07.007Z,22.90
2022-08-17T02:28:09.083Z,22.80
2022-08-17T02:29:10.996Z,22.80
2022-08-17T02:31:01.181Z,22.80
2022-08-17T02:31:37.991Z,22.90
2022-08-17T02:32:40.556Z,22.80
2022-08-17T02:33:43.809Z,22.80
2022-08-17T02:34:45.801Z,22.90
2022-08-17T02:35:47.811Z,22.80
2022-08-17T02:36:49.721Z,22.90
2022-08-17T02:37:51.948Z,22.90
2022-08-17T02:38:58.789Z,22.90
2022-08-17T02:40:00.750Z,22.90
2022-08-17T02:41:03.746Z,22.90
2022-08-17T02:42:06.085Z,22.90
2022-08-17T02:43:10.635Z,22.90
2022-08-17T02:44:12.535Z,22.90
2022-08-17T02:45:18.306Z,22.90
2022-08-17T02:46:20.161Z,22.90
2022-08-17T02:47:22.076Z,22.90
2022-08-17T02:48:30.469Z,22.90
2022-08-17T02:49:33.580Z,22.90
2022-08-17T02:50:35.525Z,22.90
2022-08-17T02:51:37.376Z,22.90
2022-08-17T02:52:43.752Z,22.90
2022-08-17T02:54:39.963Z,22.90
2022-08-17T02:55:30.604Z,22.90
2022-08-17T02:56:32.633Z,22.90
2022-08-17T02:57:34.820Z,22.90
2022-08-17T02:58:36.793Z,22.90
2022-08-17T02:59:39.969Z,23.00
2022-08-17T03:00:46.307Z,23.00
2022-08-17T03:01:48.356Z,23.00
2022-08-17T03:02:51.061Z,23.00
2022-08-17T03:03:53.204Z,23.00
2022-08-17T03:04:55.028Z,23.00
2022-08-17T03:05:56.933Z,23.00
2022-08-17T03:06:58.883Z,23.00
2022-08-17T03:08:01.875Z,23.10
2022-08-17T03:09:04.682Z,23.00
2022-08-17T03:10:07.846Z,23.10
2022-08-17T03:11:10.532Z,23.10
2022-08-17T03:12:13.926Z,23.10
2022-08-17T03:13:15.845Z,23.10
2022-08-17T03:14:18.495Z,23.10
2022-08-17T03:15:31.824Z,23.10
2022-08-17T03:16:33.928Z,23.10
2022-08-17T03:17:37.255Z,23.10
2022-08-17T03:18:39.123Z,23.10
2022-08-17T03:19:43.100Z,23.10
2022-08-17T03:20:45.458Z,23.00
2022-08-17T03:21:47.333Z,23.00
2022-08-17T03:23:02.835Z,23.00
2022-08-17T03:24:08.985Z,23.00
2022-08-17T03:25:14.471Z,23.00
2022-08-17T03:26:21.445Z,22.90
2022-08-17T03:27:23.476Z,22.90
2022-08-17T03:28:25.651Z,22.90
2022-08-17T03:29:27.577Z,22.90
2022-08-17T03:30:29.588Z,22.90
2022-08-17T03:31:31.865Z,22.90
2022-08-17T03:32:43.667Z,22.90
2022-08-17T03:33:45.482Z,22.90
2022-08-17T03:34:47.546Z,22.80
2022-08-17T03:35:49.743Z,22.80
2022-08-17T03:36:51.647Z,22.80
2022-08-17T03:38:00.915Z,22.80
2022-08-17T03:39:03.147Z,22.80
2022-08-17T03:40:07.813Z,22.80
2022-08-17T03:41:09.773Z,22.80
2022-08-17T03:42:32.478Z,22.80
2022-08-17T03:43:34.791Z,22.80
2022-08-17T03:44:36.623Z,22.80
2022-08-17T03:45:57.925Z,22.70
2022-08-17T03:47:18.040Z,22.70
2022-08-17T03:48:39.696Z,22.70
2022-08-17T03:49:59.993Z,22.60
2022-08-17T03:51:20.447Z,22.60
2022-08-17T03:52:41.140Z,22.60
2022-08-17T03:54:11.839Z,22.60
2022-08-17T03:55:36.193Z,22.60
2022-08-17T03:56:45.137Z,22.50
2022-08-17T03:57:47.074Z,22.50
2022-08-17T03:58:49.873Z,22.60
2022-08-17T03:59:53.298Z,22.60
2022-08-17T04:00:55.317Z,22.60
2022-08-17T04:02:01.044Z,22.60
2022-08-17T04:03:04.106Z,22.60
2022-08-17T04:04:07.957Z,22.60
2022-08-17T04:05:09.706Z,22.60
2022-08-17T04:06:11.840Z,22.60
2022-08-17T04:07:13.635Z,22.60
2022-08-17T04:08:15.610Z,22.60
2022-08-17T04:09:17.600Z,22.60
2022-08-17T04:10:24.682Z,22.60
2022-08-17T04:11:28.308Z,22.60
2022-08-17T04:12:47.098Z,22.60
2022-08-17T04:13:49.060Z,22.60
2022-08-17T04:14:53.088Z,22.60
2022-08-17T04:15:57.429Z,22.60
2022-08-17T04:16:59.316Z,22.60
2022-08-17T04:18:01.255Z,22.60
2022-08-17T04:19:04.617Z,22.60
2022-08-17T04:20:06.914Z,22.60
2022-08-17T04:21:11.724Z,22.60
2022-08-17T04:22:30.353Z,22.60
2022-08-17T04:23:37.025Z,22.60
2022-08-17T04:24:38.899Z,22.50
2022-08-17T04:25:49.071Z,22.50
2022-08-17T04:26:53.313Z,22.60
2022-08-17T04:27:57.447Z,22.60
2022-08-17T04:28:59.826Z,22.60
2022-08-17T04:30:02.800Z,22.60
2022-08-17T04:31:04.708Z,22.60
2022-08-17T04:32:07.018Z,22.60
2022-08-17T04:33:14.273Z,22.60
2022-08-17T04:34:19.847Z,22.60
2022-08-17T04:35:27.014Z,22.60
2022-08-17T04:36:28.966Z,22.60
2022-08-17T04:37:30.869Z,22.60
2022-08-17T04:38:35.606Z,22.60
2022-08-17T04:39:37.548Z,22.60
2022-08-17T04:40:58.199Z,22.60
2022-08-17T04:42:17.250Z,22.60
2022-08-17T04:43:23.300Z,22.60
2022-08-17T04:44:37.171Z,22.60
2022-08-17T04:45:55.662Z,22.60
2022-08-17T04:46:58.394Z,22.60
2022-08-17T04:48:01.148Z,22.50
2022-08-17T04:49:06.777Z,22.60
2022-08-17T04:50:09.107Z,22.60
2022-08-17T04:51:34.188Z,22.60
2022-08-17T04:52:46.178Z,22.50
2022-08-17T04:53:54.501Z,22.50
2022-08-17T04:54:57.075Z,22.50
2022-08-17T04:55:59.297Z,22.50
2022-08-17T04:57:01.213Z,22.50
2022-08-17T04:58:03.455Z,22.50
2022-08-17T04:59:09.228Z,22.50
2022-08-17T05:00:11.749Z,22.60
2022-08-17T05:01:15.107Z,22.50
2022-08-17T05:02:19.518Z,22.50
2022-08-17T05:03:21.579Z,22.60
2022-08-17T05:04:33.910Z,22.50
2022-08-17T05:05:40.416Z,22.50
2022-08-17T05:06:42.789Z,22.50
2022-08-17T05:07:44.514Z,22.50
2022-08-17T05:08:46.278Z,22.40
2022-08-17T05:09:48.657Z,22.40
2022-08-17T05:10:50.923Z,22.40
2022-08-17T05:11:52.803Z,22.40
2022-08-17T05:13:06.926Z,22.40
2022-08-17T05:14:09.397Z,22.40
2022-08-17T05:15:16.231Z,22.40
2022-08-17T05:16:19.485Z,22.40
2022-08-17T05:17:21.233Z,22.40
2022-08-17T05:18:24.523Z,22.40
2022-08-17T05:19:26.725Z,22.30
2022-08-17T05:20:29.652Z,22.30
2022-08-17T05:21:31.565Z,22.30
2022-08-17T05:22:33.455Z,22.20
2022-08-17T05:23:42.487Z,22.20
2022-08-17T05:24:53.892Z,22.20
2022-08-17T05:25:58.457Z,22.20
2022-08-17T05:27:06.266Z,22.20
2022-08-17T05:28:09.634Z,22.20
2022-08-17T05:29:11.537Z,22.20
2022-08-17T05:30:14.661Z,22.10
2022-08-17T05:31:16.811Z,22.10
2022-08-17T05:32:38.581Z,22.10
2022-08-17T05:33:46.175Z,22.10
2022-08-17T05:34:48.708Z,22.10
2022-08-17T05:35:52.417Z,22.10
2022-08-17T05:36:54.301Z,22.10
2022-08-17T05:37:56.690Z,22.10
2022-08-17T05:38:59.514Z,22.10
2022-08-17T05:40:01.705Z,22.10
2022-08-17T05:41:05.648Z,22.10
2022-08-17T05:42:07.431Z,22.10
2022-08-17T05:43:19.357Z,22.10
2022-08-17T05:44:21.478Z,22.00
2022-08-17T05:45:54.467Z,22.00
2022-08-17T05:46:50.671Z,22.00
2022-08-17T05:47:52.598Z,22.00
2022-08-17T05:48:59.470Z,21.90
2022-08-17T05:50:02.087Z,21.90
2022-08-17T05:51:25.656Z,21.90
2022-08-17T05:52:47.738Z,21.90
2022-08-17T05:54:09.390Z,21.90
2022-08-17T05:55:38.106Z,21.90
2022-08-17T05:57:15.819Z,21.90
2022-08-17T05:58:51.434Z,21.90
2022-08-17T06:00:06.698Z,21.90
2022-08-17T06:01:33.712Z,21.90
2022-08-17T06:02:57.821Z,22.00
2022-08-17T06:04:23.762Z,22.00
2022-08-17T06:06:00.003Z,22.00
2022-08-17T06:07:10.542Z,22.10
2022-08-17T06:08:42.177Z,22.10
2022-08-17T06:10:03.249Z,22.10
2022-08-17T06:11:26.469Z,22.10
2022-08-17T06:12:32.261Z,22.20
2022-08-17T06:14:03.967Z,22.10
2022-08-17T06:15:24.904Z,22.10
2022-08-17T06:16:34.534Z,22.00
2022-08-17T06:17:37.591Z,22.00
2022-08-17T06:18:50.940Z,22.00
2022-08-17T06:19:57.624Z,22.00
2022-08-17T06:21:05.859Z,22.00
2022-08-17T06:22:11.311Z,22.10
2022-08-17T06:23:23.628Z,22.10
2022-08-17T06:24:40.620Z,22.20
2022-08-17T06:25:52.341Z,22.10
2022-08-17T06:27:01.559Z,22.20
2022-08-17T06:28:09.231Z,22.20
2022-08-17T06:29:31.295Z,22.20
2022-08-17T06:31:00.730Z,22.30
2022-08-17T06:32:05.424Z,22.30
2022-08-17T06:33:19.420Z,22.30
2022-08-17T06:34:22.053Z,22.30
2022-08-17T06:35:37.509Z,22.30
2022-08-17T06:37:18.974Z,22.30
2022-08-17T06:38:42.742Z,22.40
2022-08-17T06:39:53.482Z,22.40
2022-08-17T06:41:21.296Z,22.40
2022-08-17T06:42:59.945Z,22.40
2022-08-17T06:44:09.238Z,22.40
2022-08-17T06:45:16.242Z,22.30
2022-08-17T06:46:25.609Z,22.40
2022-08-17T06:47:41.213Z,22.40
2022-08-17T06:49:08.177Z,22.50
2022-08-17T06:50:27.476Z,22.50
2022-08-17T06:51:40.562Z,22.50
2022-08-17T06:52:52.912Z,22.50
2022-08-17T06:54:45.836Z,22.50
2022-08-17T06:56:02.240Z,22.60
2022-08-17T06:57:12.632Z,22.60
2022-08-17T06:58:17.071Z,22.50
2022-08-17T06:59:25.076Z,22.60
2022-08-17T07:00:33.764Z,22.60
2022-08-17T07:01:39.441Z,22.60
2022-08-17T07:02:58.140Z,22.70
2022-08-17T07:04:14.044Z,22.70
2022-08-17T07:05:18.374Z,22.70
2022-08-17T07:06:28.184Z,22.70
2022-08-17T07:07:50.291Z,22.70
2022-08-17T07:09:05.434Z,22.80
2022-08-17T07:10:10.160Z,22.80
2022-08-17T07:11:19.373Z,22.90
2022-08-17T07:12:27.558Z,22.90
2022-08-17T07:14:06.240Z,22.90
2022-08-17T07:15:19.537Z,23.00
2022-08-17T07:16:48.313Z,23.00
2022-08-17T07:17:50.680Z,23.00
2022-08-17T07:18:54.773Z,23.10
2022-08-17T07:20:05.550Z,23.10
2022-08-17T07:21:38.749Z,23.10
2022-08-17T07:22:59.632Z,23.20
2022-08-17T07:24:30.162Z,23.20
2022-08-17T07:25:32.732Z,23.30
2022-08-17T07:26:34.667Z,23.30
2022-08-17T07:27:45.466Z,23.40
2022-08-17T07:28:47.708Z,23.50
2022-08-17T07:30:04.675Z,23.60
2022-08-17T07:31:13.500Z,23.70
2022-08-17T07:32:19.522Z,23.80
2022-08-17T07:33:25.904Z,23.80
2022-08-17T07:34:29.203Z,23.90
2022-08-17T07:35:44.055Z,23.90
2022-08-17T07:36:46.259Z,23.90
2022-08-17T07:37:55.733Z,24.00
2022-08-17T07:38:58.468Z,24.10
2022-08-17T07:40:22.686Z,24.20
2022-08-17T07:41:24.945Z,24.20
2022-08-17T07:42:28.716Z,24.20
2022-08-17T07:43:39.540Z,24.30
2022-08-17T07:44:55.731Z,24.30
2022-08-17T07:46:37.139Z,24.40
2022-08-17T07:47:57.729Z,24.40
2022-08-17T07:49:22.265Z,24.40
2022-08-17T07:50:29.052Z,24.40
2022-08-17T07:51:39.203Z,24.40
2022-08-17T07:52:50.965Z,24.50
2022-08-17T07:54:13.172Z,24.60
2022-08-17T07:55:28.412Z,24.70
2022-08-17T07:56:41.660Z,24.80
2022-08-17T07:57:54.323Z,24.90
2022-08-17T07:59:09.783Z,24.90
2022-08-17T08:00:31.384Z,25.00
2022-08-17T08:01:41.730Z,25.00
2022-08-17T08:02:58.050Z,25.00
2022-08-17T08:03:59.970Z,25.00
2022-08-17T08:05:13.335Z,25.00
2022-08-17T08:06:26.557Z,25.10
2022-08-17T08:07:50.575Z,25.10
2022-08-17T08:08:55.422Z,25.00
2022-08-17T08:10:11.909Z,25.00
2022-08-17T08:11:28.106Z,25.00
2022-08-17T08:12:39.764Z,25.10
2022-08-17T08:13:45.577Z,25.10
2022-08-17T08:15:14.202Z,25.10
2022-08-17T08:16:29.820Z,25.20
2022-08-17T08:17:38.171Z,25.20
2022-08-17T08:18:55.905Z,25.20
2022-08-17T08:20:00.436Z,25.20
2022-08-17T08:21:28.926Z,25.30
2022-08-17T08:22:43.645Z,25.30
2022-08-17T08:23:54.919Z,25.30
2022-08-17T08:25:29.341Z,25.40
2022-08-17T08:26:58.603Z,25.40
2022-08-17T08:28:20.089Z,25.40
2022-08-17T08:29:40.701Z,25.50
2022-08-17T08:30:50.515Z,25.50
2022-08-17T08:31:59.491Z,25.50
2022-08-17T08:33:04.585Z,25.60
2022-08-17T08:34:58.679Z,25.60
2022-08-17T08:35:57.390Z,25.70
2022-08-17T08:37:34.785Z,25.60
2022-08-17T08:38:53.747Z,25.70
2022-08-17T08:40:13.758Z,25.70
2022-08-17T08:41:21.286Z,25.70
2022-08-17T08:42:35.700Z,25.70
2022-08-17T08:44:09.510Z,25.70
2022-08-17T08:45:38.434Z,25.70
2022-08-17T08:46:53.358Z,25.80
2022-08-17T08:48:22.932Z,25.80
2022-08-17T08:50:31.815Z,25.90
2022-08-17T08:51:59.343Z,26.10
2022-08-17T08:53:12.298Z,26.30
2022-08-17T08:54:52.379Z,26.40
2022-08-17T08:56:08.061Z,26.60
2022-08-17T08:57:41.096Z,26.70
2022-08-17T08:58:47.360Z,26.80
2022-08-17T09:00:19.431Z,26.80
2022-08-17T09:01:37.233Z,26.90
2022-08-17T09:03:02.828Z,26.90
2022-08-17T09:05:02.803Z,26.90
2022-08-17T09:06:32.175Z,26.90
2022-08-17T09:07:44.145Z,26.90
2022-08-17T09:09:07.685Z,26.80
2022-08-17T09:10:35.131Z,27.00
2022-08-17T09:12:01.856Z,27.00
2022-08-17T09:13:17.572Z,27.00
2022-08-17T09:14:28.420Z,27.00
2022-08-17T09:15:38.406Z,27.00
2022-08-17T09:17:02.864Z,27.00
2022-08-17T09:19:00.122Z,27.00
2022-08-17T09:19:51.528Z,27.00
2022-08-17T09:21:01.406Z,27.10
2022-08-17T09:22:21.921Z,27.30
2022-08-17T09:23:39.346Z,27.40
2022-08-17T09:24:54.788Z,27.60
2022-08-17T09:26:09.929Z,27.70
2022-08-17T09:27:21.830Z,27.70
2022-08-17T09:28:34.853Z,27.70
2022-08-17T09:29:50.240Z,27.70
2022-08-17T09:31:01.834Z,27.70
2022-08-17T09:32:17.667Z,27.80
2022-08-17T09:33:26.622Z,27.90
2022-08-17T09:34:44.631Z,28.00
2022-08-17T09:35:57.469Z,28.00
2022-08-17T09:37:02.968Z,28.00
2022-08-17T09:38:22.663Z,28.10
2022-08-17T09:39:35.431Z,28.10
2022-08-17T09:40:56.115Z,28.10
2022-08-17T09:42:05.382Z,28.20
2022-08-17T09:43:11.528Z,28.30
2022-08-17T09:44:25.302Z,28.40
2022-08-17T09:45:33.816Z,28.50
2022-08-17T09:46:47.947Z,28.60
2022-08-17T09:48:15.840Z,28.70
2022-08-17T09:49:29.660Z,28.70
2022-08-17T09:51:03.367Z,28.70
2022-08-17T09:52:20.361Z,28.80
2022-08-17T09:53:22.861Z,28.80
2022-08-17T09:54:39.235Z,28.70
2022-08-17T09:55:50.563Z,28.60
2022-08-17T09:57:29.291Z,28.60
2022-08-17T09:59:03.711Z,28.60
2022-08-17T10:00:16.751Z,28.60
2022-08-17T10:01:31.553Z,28.60
2022-08-17T10:02:36.564Z,28.80
2022-08-17T10:04:03.192Z,28.90
2022-08-17T10:05:27.560Z,29.00
2022-08-17T10:06:42.127Z,29.20
2022-08-17T10:08:03.914Z,29.20
2022-08-17T10:09:19.318Z,29.20
2022-08-17T10:10:29.662Z,29.10
2022-08-17T10:12:20.616Z,29.10
2022-08-17T10:13:53.297Z,29.20
2022-08-17T10:15:27.927Z,29.30
2022-08-17T10:16:49.995Z,29.10
2022-08-17T10:18:08.449Z,29.10
2022-08-17T10:19:16.476Z,29.00
2022-08-17T10:20:43.119Z,29.00
2022-08-17T10:22:32.427Z,28.90
2022-08-17T10:23:49.813Z,28.90
2022-08-17T10:25:23.571Z,28.90
2022-08-17T10:26:46.300Z,28.90
2022-08-17T10:27:59.458Z,28.90
2022-08-17T10:29:06.879Z,29.00
2022-08-17T10:30:11.366Z,29.00
2022-08-17T10:31:34.650Z,29.10
2022-08-17T10:32:49.635Z,29.00
2022-08-17T10:34:06.745Z,28.90
2022-08-17T10:35:25.887Z,28.90
2022-08-17T10:36:48.201Z,28.90
2022-08-17T10:38:12.797Z,28.90
2022-08-17T10:39:21.465Z,28.90
2022-08-17T10:40:37.070Z,29.00
2022-08-17T10:41:47.709Z,29.00
2022-08-17T10:42:54.611Z,29.20
2022-08-17T10:44:39.397Z,29.20
2022-08-17T10:46:29.945Z,29.30
2022-08-17T10:48:06.557Z,29.30
2022-08-17T10:49:17.739Z,29.20
2022-08-17T10:50:38.161Z,29.20
2022-08-17T10:51:42.150Z,29.20
2022-08-17T10:52:43.962Z,29.20
2022-08-17T10:53:46.132Z,29.30
2022-08-17T10:54:48.943Z,29.30
2022-08-17T10:56:12.282Z,29.40
2022-08-17T10:57:37.474Z,29.50
2022-08-17T10:58:59.711Z,29.50
2022-08-17T11:00:15.360Z,29.50
2022-08-17T11:01:18.319Z,29.50
2022-08-17T11:02:26.184Z,29.70
2022-08-17T11:03:28.732Z,29.70
2022-08-17T11:04:49.745Z,29.90
2022-08-17T11:06:14.155Z,30.00
2022-08-17T11:07:54.016Z,30.10
2022-08-17T11:09:10.859Z,30.20
2022-08-17T11:10:13.661Z,30.20
2022-08-17T11:11:37.404Z,30.20
2022-08-17T11:12:59.411Z,30.30
2022-08-17T11:14:27.409Z,30.20
2022-08-17T11:15:41.414Z,30.20
2022-08-17T11:16:52.082Z,30.10
2022-08-17T11:18:02.608Z,30.20
2022-08-17T11:19:10.451Z,30.30
2022-08-17T11:20:56.879Z,30.20
2022-08-17T11:22:17.856Z,30.20
2022-08-17T11:23:58.514Z,30.30
2022-08-17T11:25:38.548Z,30.40
2022-08-17T11:26:46.943Z,30.40
2022-08-17T11:28:04.328Z,30.30
2022-08-17T11:30:01.828Z,30.30
2022-08-17T11:31:38.323Z,30.20
2022-08-17T11:32:47.169Z,30.10
2022-08-17T11:34:02.183Z,30.10
2022-08-17T11:35:20.571Z,30.10
2022-08-17T11:36:38.852Z,30.00
2022-08-17T11:38:03.121Z,30.00
2022-08-17T11:39:18.679Z,30.00
2022-08-17T11:41:12.959Z,30.00
2022-08-17T11:42:37.776Z,30.00
2022-08-17T11:44:05.421Z,30.00
2022-08-17T11:45:36.355Z,30.10
2022-08-17T11:47:27.054Z,30.10
2022-08-17T11:49:01.672Z,30.00
2022-08-17T11:50:27.908Z,29.90
2022-08-17T11:52:01.054Z,29.70
2022-08-17T11:53:03.975Z,29.70
2022-08-17T11:54:34.305Z,29.70
2022-08-17T11:55:44.345Z,29.90
2022-08-17T11:56:50.741Z,30.00
2022-08-17T11:58:30.955Z,30.20
2022-08-17T11:59:46.059Z,30.50
2022-08-17T12:00:51.480Z,30.70
2022-08-17T12:01:57.222Z,30.90
2022-08-17T12:03:24.919Z,31.00
2022-08-17T12:04:32.224Z,31.00
2022-08-17T12:05:35.175Z,31.10
2022-08-17T12:06:45.477Z,31.30
2022-08-17T12:08:01.340Z,31.80
2022-08-17T12:09:09.354Z,32.70
2022-08-17T12:10:13.877Z,33.30
2022-08-17T12:12:10.950Z,33.80
2022-08-17T12:12:54.009Z,34.20
2022-08-17T12:13:58.500Z,34.70
2022-08-17T12:15:10.474Z,35.10
2022-08-17T12:16:19.715Z,35.00
2022-08-17T12:17:40.836Z,34.70
2022-08-17T12:19:02.474Z,34.50
2022-08-17T12:20:16.368Z,34.30
2022-08-17T12:21:32.448Z,34.00
2022-08-17T12:23:04.542Z,33.70
2022-08-17T12:24:36.205Z,33.40
2022-08-17T12:25:47.773Z,33.00
2022-08-17T12:26:56.033Z,32.80
2022-08-17T12:28:05.273Z,32.80
2022-08-17T12:29:18.249Z,32.80
2022-08-17T12:30:35.424Z,32.80
2022-08-17T12:31:44.499Z,33.00
2022-08-17T12:32:50.884Z,33.00
2022-08-17T12:33:52.949Z,32.90
2022-08-17T12:34:54.962Z,32.70
2022-08-17T12:36:01.071Z,32.60
2022-08-17T12:37:23.051Z,32.60
2022-08-17T12:38:32.263Z,32.70
2022-08-17T12:39:35.821Z,32.90
2022-08-17T12:40:38.232Z,33.00
2022-08-17T12:41:44.551Z,33.10
2022-08-17T12:42:57.673Z,33.00
2022-08-17T12:44:13.638Z,33.00
2022-08-17T12:45:25.774Z,33.10
2022-08-17T12:46:29.292Z,33.50
2022-08-17T12:47:37.325Z,33.70
2022-08-17T12:48:39.752Z,34.20
2022-08-17T12:50:28.795Z,34.30
2022-08-17T12:51:31.898Z,34.30
2022-08-17T12:52:37.623Z,34.10
2022-08-17T12:53:40.994Z,34.20
2022-08-17T12:54:54.705Z,34.90
2022-08-17T12:55:59.097Z,35.70
2022-08-17T12:57:09.028Z,36.40
2022-08-17T12:58:14.698Z,36.80
2022-08-17T12:59:29.741Z,37.30
2022-08-17T13:00:45.819Z,37.80
2022-08-17T13:01:51.031Z,38.30
2022-08-17T13:03:06.138Z,38.80
2022-08-17T13:04:14.381Z,39.30
2022-08-17T13:05:27.742Z,39.90
2022-08-17T13:06:35.216Z,40.50
2022-08-17T13:07:45.013Z,41.00
2022-08-17T13:08:48.514Z,41.10
2022-08-17T13:09:51.517Z,41.10
2022-08-17T13:11:00.630Z,41.10
2022-08-17T13:12:02.660Z,41.30
2022-08-17T13:13:25.379Z,41.50
2022-08-17T13:14:28.432Z,41.90
2022-08-17T13:15:44.719Z,41.60
2022-08-17T13:16:58.333Z,41.40
2022-08-17T13:18:07.393Z,41.30
2022-08-17T13:19:12.924Z,41.40
2022-08-17T13:20:15.378Z,41.20
2022-08-17T13:21:22.262Z,41.10
2022-08-17T13:22:27.194Z,40.80
2022-08-17T13:23:32.246Z,40.60
2022-08-17T13:24:38.380Z,40.10
2022-08-17T13:25:40.514Z,39.90
2022-08-17T13:26:50.195Z,39.60
2022-08-17T13:27:54.086Z,39.40
2022-08-17T13:28:56.086Z,39.20
2022-08-17T13:30:12.279Z,39.20
2022-08-17T13:31:52.137Z,39.30
2022-08-17T13:32:57.412Z,38.90
2022-08-17T13:34:24.099Z,38.60
2022-08-17T13:35:47.683Z,38.50
2022-08-17T13:37:14.054Z,37.90
2022-08-17T13:38:36.634Z,37.30
2022-08-17T13:39:42.228Z,36.70
2022-08-17T13:40:52.565Z,35.80
2022-08-17T13:41:56.235Z,35.30
2022-08-17T13:42:59.038Z,34.90
2022-08-17T13:44:02.198Z,34.70
2022-08-17T13:45:35.676Z,34.60
2022-08-17T13:46:38.428Z,34.60
2022-08-17T13:47:41.456Z,34.40
2022-08-17T13:48:43.839Z,34.50
2022-08-17T13:49:49.009Z,34.70
2022-08-17T13:50:56.963Z,35.00
2022-08-17T13:51:59.984Z,35.70
2022-08-17T13:53:21.397Z,36.30
2022-08-17T13:54:30.621Z,37.20
2022-08-17T13:55:32.579Z,37.30
2022-08-17T13:56:50.177Z,37.40
2022-08-17T13:58:04.199Z,37.40
2022-08-17T13:59:53.421Z,37.60
2022-08-17T14:00:47.520Z,38.10
2022-08-17T14:01:53.932Z,38.30
2022-08-17T14:02:58.057Z,37.90
2022-08-17T14:04:03.166Z,37.30
2022-08-17T14:05:06.228Z,36.80
2022-08-17T14:06:09.914Z,36.90
2022-08-17T14:07:12.644Z,37.40
2022-08-17T14:08:17.129Z,37.60
2022-08-17T14:09:21.140Z,38.10
2022-08-17T14:10:25.344Z,38.60
2022-08-17T14:11:27.515Z,38.60
2022-08-17T14:12:32.409Z,38.90
2022-08-17T14:13:34.341Z,39.40
2022-08-17T14:14:36.665Z,39.50
2022-08-17T14:15:56.153Z,39.70
2022-08-17T14:16:58.927Z,40.00
2022-08-17T14:18:01.084Z,40.20
2022-08-17T14:19:03.066Z,40.50
2022-08-17T14:20:07.184Z,40.80
2022-08-17T14:21:10.067Z,40.80
2022-08-17T14:22:19.093Z,41.00
2022-08-17T14:23:21.144Z,41.30
2022-08-17T14:24:33.627Z,41.40
2022-08-17T14:25:35.691Z,41.10
2022-08-17T14:26:37.828Z,40.90
2022-08-17T14:27:53.229Z,40.60
2022-08-17T14:28:56.632Z,40.40
2022-08-17T14:29:59.294Z,40.00
2022-08-17T14:31:01.481Z,39.80
2022-08-17T14:32:11.481Z,39.20
2022-08-17T14:33:14.762Z,38.40
2022-08-17T14:34:16.749Z,37.90
2022-08-17T14:35:22.376Z,37.70
2022-08-17T14:36:24.319Z,37.50
2022-08-17T14:37:28.117Z,37.20
2022-08-17T14:38:30.191Z,37.10
2022-08-17T14:39:32.924Z,36.80
2022-08-17T14:40:36.146Z,36.50
2022-08-17T14:41:38.676Z,36.20
2022-08-17T14:42:43.727Z,35.90
2022-08-17T14:43:47.829Z,35.60
2022-08-17T14:44:50.138Z,35.20
2022-08-17T14:45:52.032Z,34.80
2022-08-17T14:46:53.906Z,34.40
2022-08-17T14:47:55.996Z,34.10
2022-08-17T14:48:59.799Z,33.90
2022-08-17T14:50:02.764Z,33.70
2022-08-17T14:51:05.503Z,33.60
2022-08-17T14:52:07.407Z,33.50
2022-08-17T14:53:13.581Z,33.30
2022-08-17T14:54:33.189Z,33.00
2022-08-17T14:55:40.042Z,32.70
2022-08-17T14:56:42.055Z,32.50
2022-08-17T14:57:47.309Z,32.30
2022-08-17T14:58:49.291Z,32.20
2022-08-17T14:59:54.811Z,32.10
2022-08-17T15:00:57.600Z,32.10
2022-08-17T15:02:00.881Z,32.00
2022-08-17T15:03:03.477Z,31.80
2022-08-17T15:04:06.374Z,31.60
2022-08-17T15:05:08.745Z,31.50
2022-08-17T15:06:11.880Z,31.40
2022-08-17T15:07:15.070Z,31.30
2022-08-17T15:08:18.001Z,31.30
2022-08-17T15:09:19.780Z,31.20
2022-08-17T15:10:21.957Z,31.10
2022-08-17T15:11:23.931Z,31.10
2022-08-17T15:12:31.839Z,31.00
2022-08-17T15:13:34.761Z,31.00
2022-08-17T15:14:36.909Z,30.90
2022-08-17T15:15:39.583Z,30.80
2022-08-17T15:16:41.658Z,30.80